Teruhou Maru No.22 — JD3202 — position and weather

sailwx.info

Track history (hours):
 
Tides and Currents Weather Stations Pressure Air Temp Water Temp Dewpoint Dewpoint Depression Visibility Wind Speed Wind Dir Waves Ship Positions

Teruhou Maru No.22

Last reported at 2015-Mar-30 12:14 UTC. Time now 2015-Mar-30 12:54 UTC.
Position N 35°05' E 140°16'.

Length 76 m; draft 4 m.

Type: Cargo ship. MMSI: 431002552.

Date/timePositionNaut miles runAvg speedWind from/ knotsBaromVisibWave heightAir tempDewpointWater temp
2015-Mar-30 12:14N 35°05' E 140°16'1514.0
2015-Mar-30 11:11N 34°57' E 140°01'1212.2
2015-Mar-30 10:14N 34°53' E 139°48'811.7
2015-Mar-30 09:33N 35°00' E 139°44'1212.3
2015-Mar-30 08:33N 35°12' E 139°46'1212.1
2015-Mar-30 07:33N 35°24' E 139°43'1212.0
2015-Mar-30 06:33N 35°32' E 139°53'9 9.0
2015-Mar-30 05:33N 35°41' E 139°57'0 0.0
2015-Mar-30 04:33N 35°41' E 139°57'0 0.0
2015-Mar-30 03:33N 35°41' E 139°57'4 4.4
2015-Mar-30 02:33N 35°36' E 139°57'0 0.0
2015-Mar-30 01:33N 35°36' E 139°57'0 0.1
2015-Mar-30 00:33N 35°36' E 139°57'0 0.0
2015-Mar-29 23:32N 35°36' E 139°57'0 0.0
2015-Mar-29 22:33N 35°36' E 139°57'0 0.0
2015-Mar-29 21:33N 35°36' E 139°57'0 0.0
2015-Mar-29 20:33N 35°36' E 139°57'0 0.0
2015-Mar-29 19:33N 35°36' E 139°57'0 0.0
2015-Mar-29 18:33N 35°36' E 139°57'0 0.0
2015-Mar-29 17:33N 35°36' E 139°57'0 0.0
2015-Mar-29 16:33N 35°36' E 139°57'0 0.0
2015-Mar-29 15:33N 35°36' E 139°57'0 0.0
2015-Mar-29 14:33N 35°36' E 139°57'0 0.1
2015-Mar-29 13:33N 35°36' E 139°57'0 0.0
2015-Mar-29 12:33N 35°36' E 139°57'0 0.0
2015-Mar-29 11:33N 35°36' E 139°57'0 0.1
2015-Mar-29 10:33N 35°36' E 139°57'0 0.1
2015-Mar-29 09:33N 35°36' E 139°57'0 0.1
2015-Mar-29 08:33N 35°36' E 139°57'1010.5
2015-Mar-29 07:33N 35°28' E 139°50'1110.8
2015-Mar-29 06:33N 35°18' E 139°45'1110.8
2015-Mar-29 05:33N 35°07' E 139°45'1312.1
2015-Mar-29 04:30N 34°58' E 139°33'23210.1
2015-Mar-28 05:27N 34°03' E 134°60'1212.1
2015-Mar-28 04:28N 34°15' E 134°59'1011.4
2015-Mar-28 03:33N 34°25' E 135°00'1111.1
2015-Mar-28 02:33N 34°36' E 135°02'1211.5
2015-Mar-28 01:31N 34°41' E 134°48'1 0.1
2015-Mar-27 17:33N 34°41' E 134°49'6 0.1
2015-Mar-25 21:29N 34°37' E 134°56'9 9.3
2015-Mar-25 20:33N 34°34' E 135°05'1212.2
2015-Mar-25 19:33N 34°22' E 135°01'  
2015-Mar-22 21:17N 34°02' E 135°01'912.2
2015-Mar-22 20:33N 34°10' E 134°58'1313.2
2015-Mar-22 19:33N 34°23' E 135°00'1212.4
2015-Mar-22 18:33N 34°36' E 135°03'1313.4
2015-Mar-22 17:33N 34°41' E 134°49'6 0.3
2015-Mar-21 21:31N 34°37' E 134°54'1010.4
2015-Mar-21 20:33N 34°34' E 135°05'1312.8
2015-Mar-21 19:31N 34°21' E 135°01'  
Track history (hours):
 
Tides and Currents Weather Stations Pressure Air Temp Water Temp Dewpoint Dewpoint Depression Visibility Wind Speed Wind Dir Waves Ship Positions

Teruhou Maru No.22

Last reported at 2015-Mar-30 12:14 UTC. Time now 2015-Mar-30 12:54 UTC.
Position N 35°05' E 140°16'.

Length 76 m; draft 4 m.

Type: Cargo ship. MMSI: 431002552.

Date/timePositionNaut miles runAvg speedWind from/ knotsBaromVisibWave heightAir tempDewpointWater temp
2015-Mar-30 12:14N 35°05' E 140°16'1514.0
2015-Mar-30 11:11N 34°57' E 140°01'1212.2
2015-Mar-30 10:14N 34°53' E 139°48'811.7
2015-Mar-30 09:33N 35°00' E 139°44'1212.3
2015-Mar-30 08:33N 35°12' E 139°46'1212.1
2015-Mar-30 07:33N 35°24' E 139°43'1212.0
2015-Mar-30 06:33N 35°32' E 139°53'9 9.0
2015-Mar-30 05:33N 35°41' E 139°57'0 0.0
2015-Mar-30 04:33N 35°41' E 139°57'0 0.0
2015-Mar-30 03:33N 35°41' E 139°57'4 4.4
2015-Mar-30 02:33N 35°36' E 139°57'0 0.0
2015-Mar-30 01:33N 35°36' E 139°57'0 0.1
2015-Mar-30 00:33N 35°36' E 139°57'0 0.0
2015-Mar-29 23:32N 35°36' E 139°57'0 0.0
2015-Mar-29 22:33N 35°36' E 139°57'0 0.0
2015-Mar-29 21:33N 35°36' E 139°57'0 0.0
2015-Mar-29 20:33N 35°36' E 139°57'0 0.0
2015-Mar-29 19:33N 35°36' E 139°57'0 0.0
2015-Mar-29 18:33N 35°36' E 139°57'0 0.0
2015-Mar-29 17:33N 35°36' E 139°57'0 0.0
2015-Mar-29 16:33N 35°36' E 139°57'0 0.0
2015-Mar-29 15:33N 35°36' E 139°57'0 0.0
2015-Mar-29 14:33N 35°36' E 139°57'0 0.1
2015-Mar-29 13:33N 35°36' E 139°57'0 0.0
2015-Mar-29 12:33N 35°36' E 139°57'0 0.0
2015-Mar-29 11:33N 35°36' E 139°57'0 0.1
2015-Mar-29 10:33N 35°36' E 139°57'0 0.1
2015-Mar-29 09:33N 35°36' E 139°57'0 0.1
2015-Mar-29 08:33N 35°36' E 139°57'1010.5
2015-Mar-29 07:33N 35°28' E 139°50'1110.8
2015-Mar-29 06:33N 35°18' E 139°45'1110.8
2015-Mar-29 05:33N 35°07' E 139°45'1312.1
2015-Mar-29 04:30N 34°58' E 139°33'23210.1
2015-Mar-28 05:27N 34°03' E 134°60'1212.1
2015-Mar-28 04:28N 34°15' E 134°59'1011.4
2015-Mar-28 03:33N 34°25' E 135°00'1111.1
2015-Mar-28 02:33N 34°36' E 135°02'1211.5
2015-Mar-28 01:31N 34°41' E 134°48'1 0.1
2015-Mar-27 17:33N 34°41' E 134°49'6 0.1
2015-Mar-25 21:29N 34°37' E 134°56'9 9.3
2015-Mar-25 20:33N 34°34' E 135°05'1212.2
2015-Mar-25 19:33N 34°22' E 135°01'  
2015-Mar-22 21:17N 34°02' E 135°01'912.2
2015-Mar-22 20:33N 34°10' E 134°58'1313.2
2015-Mar-22 19:33N 34°23' E 135°00'1212.4
2015-Mar-22 18:33N 34°36' E 135°03'1313.4
2015-Mar-22 17:33N 34°41' E 134°49'6 0.3
2015-Mar-21 21:31N 34°37' E 134°54'1010.4
2015-Mar-21 20:33N 34°34' E 135°05'1312.8
2015-Mar-21 19:31N 34°21' E 135°01'  

Dump ship's entire track history